Time;durP1;ratioP1;P1;durP2;ratioP2;P2;SDS_P1;SDS_P2;PMS_P1;PMS_P2;Temp;Humidity;BMP_temperature;BMP_pressure;BME280_temperature;BME280_humidity;BME280_pressure;Samples;Min_cycle;Max_cycle;Signal;HPM_P1;HPM_P2
2021/10/11 00:00:42;;;;;;;10.95;8.27;;;;;;;;;;4528946;28;20155;-65
2021/10/11 00:02:52;;;;;;;10.60;7.90;;;;;;;;;;4527656;28;30113;-65
2021/10/11 00:05:04;;;;;;;10.00;7.37;;;;;;;;;;4528159;28;20025;-65
2021/10/11 00:07:16;;;;;;;10.13;7.20;;;;;;;;;;4528195;28;20033;-65
2021/10/11 00:09:27;;;;;;;10.18;7.68;;;;;;;;;;4530243;28;20040;-64
2021/10/11 00:11:37;;;;;;;10.27;7.50;;;;;;;;;;4528607;28;22018;-65
2021/10/11 00:13:48;;;;;;;9.73;7.10;;;;;;;;;;4527004;28;30091;-65
2021/10/11 00:15:58;;;;;;;10.67;8.00;;;;;;;;;;4528413;28;20184;-64
2021/10/11 00:18:08;;;;;;;9.63;7.50;;;;;;;;;;4530662;28;20033;-65
2021/10/11 00:20:19;;;;;;;10.93;8.33;;;;;;;;;;4528645;28;40780;-65
2021/10/11 00:22:29;;;;;;;10.77;7.73;;;;;;;;;;4528931;28;20040;-65
2021/10/11 00:24:40;;;;;;;9.97;7.57;;;;;;;;;;4529618;28;31687;-65
2021/10/11 00:26:50;;;;;;;9.67;7.03;;;;;;;;;;4529092;28;22637;-65
2021/10/11 00:29:00;;;;;;;10.03;7.53;;;;;;;;;;4511086;28;20134;-65
2021/10/11 00:31:11;;;;;;;8.97;6.40;;;;;;;;;;4516247;28;20034;-65
2021/10/11 00:33:21;;;;;;;9.80;7.13;;;;;;;;;;4513671;28;20050;-65
2021/10/11 00:35:33;;;;;;;9.03;6.63;;;;;;;;;;4527678;28;29927;-65
2021/10/11 00:37:43;;;;;;;9.35;6.75;;;;;;;;;;4527113;28;20026;-65
2021/10/11 00:39:53;;;;;;;10.37;6.93;;;;;;;;;;4526065;28;31559;-65
2021/10/11 00:42:04;;;;;;;8.73;6.97;;;;;;;;;;4528487;28;26691;-65
2021/10/11 00:44:14;;;;;;;10.03;6.90;;;;;;;;;;4527221;28;20436;-65
2021/10/11 00:46:25;;;;;;;9.53;7.03;;;;;;;;;;4530944;28;20029;-65
2021/10/11 00:48:35;;;;;;;9.63;7.37;;;;;;;;;;4527797;28;20076;-65
2021/10/11 00:50:47;;;;;;;9.80;7.60;;;;;;;;;;4512025;28;20057;-65
2021/10/11 00:52:57;;;;;;;10.40;8.02;;;;;;;;;;4516684;28;20081;-65
2021/10/11 00:55:08;;;;;;;9.80;7.67;;;;;;;;;;4526866;28;20453;-65
2021/10/11 00:57:19;;;;;;;10.37;7.63;;;;;;;;;;4510801;28;20045;-65
2021/10/11 00:59:29;;;;;;;10.27;7.33;;;;;;;;;;4526368;28;29041;-65
2021/10/11 01:01:39;;;;;;;9.57;6.37;;;;;;;;;;4528678;28;20025;-64
2021/10/11 01:03:50;;;;;;;10.20;7.10;;;;;;;;;;4527635;28;20472;-63
2021/10/11 01:06:00;;;;;;;9.37;7.13;;;;;;;;;;4512613;28;20034;-64
2021/10/11 01:08:11;;;;;;;9.13;7.17;;;;;;;;;;4528040;28;31720;-64
2021/10/11 01:10:21;;;;;;;9.37;7.10;;;;;;;;;;4514993;28;20724;-64
2021/10/11 01:12:32;;;;;;;11.17;8.20;;;;;;;;;;4527809;28;20200;-64
2021/10/11 01:14:42;;;;;;;10.17;8.13;;;;;;;;;;4509613;28;20037;-64
2021/10/11 01:16:52;;;;;;;10.47;8.00;;;;;;;;;;4527628;28;20045;-64
2021/10/11 01:19:03;;;;;;;11.27;8.40;;;;;;;;;;4529062;28;20132;-64
2021/10/11 01:21:13;;;;;;;11.57;8.63;;;;;;;;;;4527172;28;30361;-63
2021/10/11 01:23:25;;;;;;;11.10;8.13;;;;;;;;;;4528543;28;20109;-64
2021/10/11 01:25:36;;;;;;;11.50;8.32;;;;;;;;;;4516306;28;21381;-63
2021/10/11 01:27:47;;;;;;;10.73;7.77;;;;;;;;;;4529624;28;20045;-63
2021/10/11 01:29:57;;;;;;;11.03;8.53;;;;;;;;;;4528276;28;20041;-64
2021/10/11 01:32:08;;;;;;;11.97;9.03;;;;;;;;;;4529083;28;20122;-64
2021/10/11 01:34:18;;;;;;;12.50;8.60;;;;;;;;;;4515182;28;20097;-63
2021/10/11 01:36:29;;;;;;;11.23;8.23;;;;;;;;;;4528879;28;20082;-64
2021/10/11 01:38:40;;;;;;;11.48;8.98;;;;;;;;;;4527195;28;20639;-63
2021/10/11 01:40:50;;;;;;;12.03;9.27;;;;;;;;;;4528043;28;22488;-63
2021/10/11 01:43:01;;;;;;;11.37;9.30;;;;;;;;;;4509218;28;20121;-64
2021/10/11 01:45:11;;;;;;;11.03;8.70;;;;;;;;;;4527478;28;20050;-63
2021/10/11 01:47:25;;;;;;;12.07;8.77;;;;;;;;;;4528547;28;20042;-64
2021/10/11 01:49:36;;;;;;;12.07;8.88;;;;;;;;;;4529126;28;20086;-64
2021/10/11 01:51:46;;;;;;;12.60;8.70;;;;;;;;;;4530790;28;20037;-64
2021/10/11 01:53:57;;;;;;;11.87;9.00;;;;;;;;;;4531617;28;32309;-63
2021/10/11 01:56:07;;;;;;;11.87;9.20;;;;;;;;;;4513196;28;20061;-63
2021/10/11 01:58:17;;;;;;;12.30;9.13;;;;;;;;;;4530700;28;20064;-63
2021/10/11 02:00:28;;;;;;;12.23;9.60;;;;;;;;;;4532321;28;20064;-63
2021/10/11 02:02:38;;;;;;;8.87;6.77;;;;;;;;;;4531882;28;20690;-63
2021/10/11 02:04:49;;;;;;;11.43;9.03;;;;;;;;;;4531177;28;20408;-64
2021/10/11 02:06:59;;;;;;;11.87;9.17;;;;;;;;;;4514173;28;20053;-63
2021/10/11 02:09:09;;;;;;;11.60;9.37;;;;;;;;;;4529613;28;28144;-63
2021/10/11 02:11:20;;;;;;;13.70;9.53;;;;;;;;;;4531197;28;27761;-64
2021/10/11 02:13:30;;;;;;;13.63;9.63;;;;;;;;;;4530741;28;20044;-63
2021/10/11 02:15:41;;;;;;;11.60;9.30;;;;;;;;;;4515371;28;20038;-63
2021/10/11 02:17:52;;;;;;;11.47;8.87;;;;;;;;;;4531240;28;20048;-63
2021/10/11 02:20:04;;;;;;;11.93;9.10;;;;;;;;;;4513763;28;20582;-63
2021/10/11 02:22:14;;;;;;;12.25;9.25;;;;;;;;;;4529524;28;20528;-63
2021/10/11 02:24:24;;;;;;;11.83;9.10;;;;;;;;;;4531032;28;26183;-63
2021/10/11 02:26:35;;;;;;;12.87;9.67;;;;;;;;;;4529804;28;20092;-63
2021/10/11 02:28:45;;;;;;;11.87;9.73;;;;;;;;;;4530057;28;20076;-63
2021/10/11 02:30:56;;;;;;;12.67;9.60;;;;;;;;;;4528706;28;20033;-64
2021/10/11 02:33:07;;;;;;;13.05;10.35;;;;;;;;;;4513548;28;20486;-64
2021/10/11 02:35:20;;;;;;;12.40;10.17;;;;;;;;;;4499830;28;20045;-63
2021/10/11 02:37:31;;;;;;;13.50;10.93;;;;;;;;;;4531997;28;20048;-62
2021/10/11 02:39:42;;;;;;;12.60;9.47;;;;;;;;;;4528409;28;20029;-63
2021/10/11 02:41:53;;;;;;;12.90;9.90;;;;;;;;;;4529799;28;20090;-64
2021/10/11 02:44:03;;;;;;;13.55;10.45;;;;;;;;;;4531143;28;20512;-64
2021/10/11 02:46:14;;;;;;;12.83;10.00;;;;;;;;;;4529182;28;20042;-63
2021/10/11 02:48:24;;;;;;;13.37;10.00;;;;;;;;;;4531457;28;31014;-63
2021/10/11 02:50:34;;;;;;;12.10;9.70;;;;;;;;;;4530611;28;20045;-63
2021/10/11 02:52:45;;;;;;;12.73;10.17;;;;;;;;;;4515159;28;20042;-63
2021/10/11 02:54:56;;;;;;;13.37;10.40;;;;;;;;;;4532048;28;20124;-63
2021/10/11 02:57:06;;;;;;;12.87;10.00;;;;;;;;;;4529155;28;20029;-63
2021/10/11 02:59:16;;;;;;;13.43;9.93;;;;;;;;;;4518178;28;20867;-63
2021/10/11 03:01:27;;;;;;;12.33;9.40;;;;;;;;;;4529807;28;20096;-63
2021/10/11 03:03:38;;;;;;;12.43;10.00;;;;;;;;;;4512561;28;20046;-63
2021/10/11 03:05:48;;;;;;;14.48;10.43;;;;;;;;;;4529373;28;20108;-62
2021/10/11 03:07:59;;;;;;;12.00;9.67;;;;;;;;;;4530858;28;20072;-62
2021/10/11 03:10:09;;;;;;;12.57;10.23;;;;;;;;;;4528919;28;20088;-62
2021/10/11 03:12:20;;;;;;;13.17;10.23;;;;;;;;;;4531027;28;20033;-61
2021/10/11 03:14:31;;;;;;;14.83;10.57;;;;;;;;;;4530679;28;20064;-61
2021/10/11 03:16:42;;;;;;;13.18;10.77;;;;;;;;;;4512862;28;20033;-61
2021/10/11 03:18:52;;;;;;;13.67;10.47;;;;;;;;;;4529406;28;24570;-61
2021/10/11 03:21:03;;;;;;;15.43;11.40;;;;;;;;;;4531010;28;20036;-61
2021/10/11 03:23:14;;;;;;;14.37;10.73;;;;;;;;;;4529731;28;20105;-61
2021/10/11 03:25:24;;;;;;;14.50;10.77;;;;;;;;;;4528902;28;20331;-61
2021/10/11 03:27:35;;;;;;;13.43;10.97;;;;;;;;;;4529379;28;20042;-62
2021/10/11 03:29:45;;;;;;;13.90;11.33;;;;;;;;;;4530360;28;20088;-61
2021/10/11 03:31:55;;;;;;;14.00;11.47;;;;;;;;;;4530734;28;20033;-61
2021/10/11 03:34:06;;;;;;;14.57;10.90;;;;;;;;;;4529938;28;20087;-61
2021/10/11 03:36:17;;;;;;;14.07;11.20;;;;;;;;;;4530707;28;20453;-61
2021/10/11 03:38:27;;;;;;;15.40;11.67;;;;;;;;;;4522369;28;27049;-61
2021/10/11 03:40:37;;;;;;;14.57;11.33;;;;;;;;;;4530533;28;20037;-61
2021/10/11 03:42:48;;;;;;;14.47;11.60;;;;;;;;;;4529166;28;20029;-61
2021/10/11 03:44:58;;;;;;;15.57;12.17;;;;;;;;;;4527902;28;21027;-61
2021/10/11 03:47:09;;;;;;;15.50;12.37;;;;;;;;;;4529184;28;20026;-61
2021/10/11 03:49:19;;;;;;;14.53;11.80;;;;;;;;;;4530656;28;20041;-61
2021/10/11 03:51:30;;;;;;;14.77;11.83;;;;;;;;;;4530831;28;20025;-61
2021/10/11 03:53:40;;;;;;;14.00;11.63;;;;;;;;;;4529439;28;20029;-61
2021/10/11 03:55:51;;;;;;;14.23;11.20;;;;;;;;;;4516305;28;20049;-61
2021/10/11 03:58:01;;;;;;;13.10;10.73;;;;;;;;;;4527775;28;20033;-61
2021/10/11 04:00:12;;;;;;;12.67;10.57;;;;;;;;;;4529619;28;20445;-61
2021/10/11 04:02:22;;;;;;;13.47;10.57;;;;;;;;;;4528904;28;20092;-61
2021/10/11 04:04:34;;;;;;;12.80;10.53;;;;;;;;;;4500445;28;20038;-61
2021/10/11 04:06:44;;;;;;;;;;;;;;;;;;4529345;28;20138;-60
2021/10/11 04:08:55;;;;;;;13.30;10.50;;;;;;;;;;4521944;28;20047;-61
2021/10/11 04:11:22;;;;;;;12.87;10.40;;;;;;;;;;4515523;28;20038;-61
2021/10/11 04:13:33;;;;;;;13.30;10.77;;;;;;;;;;4513901;28;20592;-61
2021/10/11 04:15:44;;;;;;;12.40;10.10;;;;;;;;;;4511837;28;20037;-61
2021/10/11 04:17:57;;;;;;;13.77;9.87;;;;;;;;;;4513907;28;21694;-61
2021/10/11 04:20:07;;;;;;;12.90;10.50;;;;;;;;;;4529196;28;20580;-61
2021/10/11 04:22:18;;;;;;;13.10;10.47;;;;;;;;;;4529707;28;20029;-61
2021/10/11 04:24:28;;;;;;;13.50;10.93;;;;;;;;;;4528733;28;20033;-61
2021/10/11 04:26:39;;;;;;;12.93;10.50;;;;;;;;;;4526436;28;20069;-61
2021/10/11 04:28:49;;;;;;;13.70;10.87;;;;;;;;;;4520225;28;20048;-61
2021/10/11 04:31:00;;;;;;;12.37;10.27;;;;;;;;;;4527817;28;27398;-61
2021/10/11 04:33:11;;;;;;;13.20;10.53;;;;;;;;;;4528105;28;20699;-61
2021/10/11 04:35:22;;;;;;;13.57;10.98;;;;;;;;;;4516063;28;20092;-60
2021/10/11 04:37:32;;;;;;;13.13;10.15;;;;;;;;;;4512238;28;20124;-61
2021/10/11 04:39:43;;;;;;;13.47;10.17;;;;;;;;;;4528032;28;20046;-61
2021/10/11 04:41:53;;;;;;;12.37;10.27;;;;;;;;;;4512045;28;20574;-61
2021/10/11 04:44:04;;;;;;;12.60;10.17;;;;;;;;;;4528752;28;20041;-61
2021/10/11 04:46:14;;;;;;;11.87;9.77;;;;;;;;;;4528954;28;20033;-61
2021/10/11 04:48:24;;;;;;;13.73;10.77;;;;;;;;;;4528576;28;22827;-61
2021/10/11 04:50:35;;;;;;;13.17;10.30;;;;;;;;;;4528791;28;20827;-61
2021/10/11 04:52:45;;;;;;;12.10;9.63;;;;;;;;;;4528669;28;20489;-61
2021/10/11 04:54:56;;;;;;;12.17;9.33;;;;;;;;;;4525951;28;24867;-61
2021/10/11 04:57:06;;;;;;;12.63;10.20;;;;;;;;;;4527766;28;37150;-61
2021/10/11 04:59:16;;;;;;;13.67;10.30;;;;;;;;;;4527334;28;20041;-61
2021/10/11 05:01:27;;;;;;;13.63;10.13;;;;;;;;;;4514246;28;20607;-61
2021/10/11 05:03:37;;;;;;;13.00;10.33;;;;;;;;;;4528481;28;20041;-61
2021/10/11 05:05:48;;;;;;;13.50;9.70;;;;;;;;;;4527535;28;20084;-61
2021/10/11 05:07:59;;;;;;;12.97;10.10;;;;;;;;;;4520549;28;29431;-61
2021/10/11 05:10:09;;;;;;;12.40;10.02;;;;;;;;;;4528838;28;20642;-61
2021/10/11 05:12:20;;;;;;;14.13;10.03;;;;;;;;;;4516626;28;20153;-62
2021/10/11 05:14:30;;;;;;;13.47;10.70;;;;;;;;;;4529182;28;20116;-61
2021/10/11 05:16:41;;;;;;;13.00;10.33;;;;;;;;;;4528458;28;20037;-61
2021/10/11 05:18:51;;;;;;;13.00;10.17;;;;;;;;;;4529045;28;20621;-61
2021/10/11 05:21:02;;;;;;;12.63;10.37;;;;;;;;;;4528991;28;20030;-61
2021/10/11 05:23:12;;;;;;;13.53;10.73;;;;;;;;;;4529203;28;20063;-61
2021/10/11 05:25:26;;;;;;;13.53;9.87;;;;;;;;;;4526743;28;20260;-61
2021/10/11 05:27:36;;;;;;;13.02;10.57;;;;;;;;;;4528420;28;20049;-61
2021/10/11 05:29:47;;;;;;;12.30;9.97;;;;;;;;;;4526832;28;20041;-61
2021/10/11 05:31:57;;;;;;;13.17;10.77;;;;;;;;;;4514759;28;20038;-61
2021/10/11 05:34:08;;;;;;;13.57;10.33;;;;;;;;;;4529514;28;20033;-61
2021/10/11 05:36:18;;;;;;;12.77;9.97;;;;;;;;;;4515716;28;20034;-61
2021/10/11 05:38:29;;;;;;;13.43;10.53;;;;;;;;;;4528196;28;20053;-61
2021/10/11 05:40:39;;;;;;;12.60;9.70;;;;;;;;;;4510366;28;20029;-61
2021/10/11 05:42:50;;;;;;;13.50;10.27;;;;;;;;;;4529279;28;20528;-61
2021/10/11 05:45:00;;;;;;;13.50;10.50;;;;;;;;;;4529681;28;20037;-61
2021/10/11 05:47:11;;;;;;;13.83;10.10;;;;;;;;;;4528685;28;20033;-61
2021/10/11 05:49:22;;;;;;;13.33;11.00;;;;;;;;;;4520316;28;20172;-62
2021/10/11 05:51:33;;;;;;;;;;;;;;;;;;4509762;28;20125;-61
2021/10/11 05:53:43;;;;;;;13.43;10.43;;;;;;;;;;4527557;28;20003;-61
2021/10/11 05:55:54;;;;;;;14.63;11.50;;;;;;;;;;4528723;28;20040;-60
2021/10/11 05:58:04;;;;;;;13.20;10.57;;;;;;;;;;4500293;28;20042;-61
2021/10/11 06:00:15;;;;;;;13.30;10.33;;;;;;;;;;4526283;28;27052;-60
2021/10/11 06:02:25;;;;;;;14.23;10.68;;;;;;;;;;4527770;28;20038;-61
2021/10/11 06:04:36;;;;;;;13.70;10.50;;;;;;;;;;4528363;28;20067;-60
2021/10/11 06:06:46;;;;;;;13.27;10.17;;;;;;;;;;4528750;28;20045;-61
2021/10/11 06:08:57;;;;;;;12.97;9.93;;;;;;;;;;4519930;28;20694;-60
2021/10/11 06:11:07;;;;;;;12.77;9.60;;;;;;;;;;4527306;28;20096;-61
2021/10/11 06:13:18;;;;;;;13.03;10.33;;;;;;;;;;4526175;28;32086;-60
2021/10/11 06:15:28;;;;;;;13.97;10.63;;;;;;;;;;4525218;28;20048;-60
2021/10/11 06:17:39;;;;;;;13.30;10.43;;;;;;;;;;4527193;28;20396;-60
2021/10/11 06:19:49;;;;;;;12.67;9.80;;;;;;;;;;4527076;28;20029;-61
2021/10/11 06:22:00;;;;;;;13.37;9.70;;;;;;;;;;4526946;28;20037;-61
2021/10/11 06:24:11;;;;;;;13.10;9.87;;;;;;;;;;4527683;28;20517;-60
2021/10/11 06:26:22;;;;;;;;;;;;;;;;;;4528349;28;20041;-61
2021/10/11 06:28:32;;;;;;;13.23;9.90;;;;;;;;;;4526533;28;19924;-60
2021/10/11 06:30:45;;;;;;;13.67;9.80;;;;;;;;;;4526288;28;20048;-60
2021/10/11 06:32:55;;;;;;;13.05;9.82;;;;;;;;;;4525382;28;20033;-61
2021/10/11 06:35:06;;;;;;;13.70;10.00;;;;;;;;;;4526028;28;20025;-61
2021/10/11 06:37:17;;;;;;;12.25;9.40;;;;;;;;;;4524878;28;20041;-60
2021/10/11 06:39:27;;;;;;;13.23;9.13;;;;;;;;;;4529401;28;20071;-60
2021/10/11 06:41:38;;;;;;;13.20;10.40;;;;;;;;;;4530540;28;20036;-61
2021/10/11 06:43:48;;;;;;;12.93;9.47;;;;;;;;;;4512348;28;20529;-61
2021/10/11 06:45:59;;;;;;;14.03;9.47;;;;;;;;;;4529313;28;20137;-61
2021/10/11 06:48:09;;;;;;;13.20;9.63;;;;;;;;;;4525618;28;20069;-61
2021/10/11 06:50:20;;;;;;;12.83;9.63;;;;;;;;;;4526817;28;20543;-61
2021/10/11 06:52:30;;;;;;;13.40;9.57;;;;;;;;;;4529445;28;20072;-61
2021/10/11 06:54:41;;;;;;;11.67;9.27;;;;;;;;;;4529859;28;20033;-61
2021/10/11 06:56:52;;;;;;;12.03;9.13;;;;;;;;;;4529926;28;20113;-61
2021/10/11 06:59:02;;;;;;;12.25;9.48;;;;;;;;;;4515635;28;20045;-61
2021/10/11 07:01:13;;;;;;;11.30;8.53;;;;;;;;;;4529701;28;20638;-61
2021/10/11 07:03:24;;;;;;;11.80;8.53;;;;;;;;;;4530496;28;20040;-61
2021/10/11 07:05:35;;;;;;;11.32;9.02;;;;;;;;;;4513309;28;20105;-61
2021/10/11 07:07:47;;;;;;;11.23;8.37;;;;;;;;;;4512116;28;20397;-61
2021/10/11 07:09:57;;;;;;;11.65;7.93;;;;;;;;;;4528960;28;20107;-62
2021/10/11 07:12:07;;;;;;;12.00;8.30;;;;;;;;;;4528210;28;20900;-61
2021/10/11 07:14:21;;;;;;;11.83;8.30;;;;;;;;;;4528309;28;20039;-61
2021/10/11 07:16:31;;;;;;;12.82;8.25;;;;;;;;;;4529464;28;20041;-61
2021/10/11 07:18:42;;;;;;;11.20;8.23;;;;;;;;;;4528779;28;20037;-61
2021/10/11 07:20:52;;;;;;;9.67;7.33;;;;;;;;;;4511841;28;20033;-61
2021/10/11 07:23:02;;;;;;;11.30;7.73;;;;;;;;;;4528994;28;20068;-61
2021/10/11 07:25:13;;;;;;;10.83;7.77;;;;;;;;;;4530229;28;20128;-61
2021/10/11 07:27:23;;;;;;;9.83;6.83;;;;;;;;;;4521072;28;20406;-61
2021/10/11 07:29:35;;;;;;;10.93;7.03;;;;;;;;;;4528211;28;20042;-62
2021/10/11 07:31:46;;;;;;;10.48;7.65;;;;;;;;;;4528636;28;20037;-62
2021/10/11 07:33:56;;;;;;;9.30;7.03;;;;;;;;;;4529339;28;20018;-62
2021/10/11 07:36:07;;;;;;;9.67;7.07;;;;;;;;;;4529742;28;20037;-62
2021/10/11 07:38:17;;;;;;;10.23;7.10;;;;;;;;;;4528374;28;20995;-62
2021/10/11 07:40:28;;;;;;;8.93;6.23;;;;;;;;;;4522083;28;20037;-62
2021/10/11 07:42:38;;;;;;;9.60;6.37;;;;;;;;;;4516507;28;20175;-62
2021/10/11 07:44:49;;;;;;;8.70;6.33;;;;;;;;;;4529958;28;20044;-62
2021/10/11 07:46:59;;;;;;;9.73;6.67;;;;;;;;;;4530536;28;20042;-62
2021/10/11 07:49:09;;;;;;;8.53;6.30;;;;;;;;;;4527049;28;20277;-62
2021/10/11 07:51:20;;;;;;;9.27;6.50;;;;;;;;;;4529284;28;20029;-62
2021/10/11 07:53:30;;;;;;;8.83;6.17;;;;;;;;;;4528260;28;20025;-62
2021/10/11 07:55:42;;;;;;;8.50;6.00;;;;;;;;;;4528048;28;21449;-62
2021/10/11 07:57:52;;;;;;;7.45;5.32;;;;;;;;;;4529681;28;20041;-62
2021/10/11 08:00:14;;;;;;;8.57;5.70;;;;;;;;;;4529386;28;20034;-62
2021/10/11 08:02:25;;;;;;;8.98;5.38;;;;;;;;;;4513149;28;20033;-62
2021/10/11 08:04:36;;;;;;;7.63;5.20;;;;;;;;;;4510205;28;20669;-62
2021/10/11 08:06:46;;;;;;;7.73;5.07;;;;;;;;;;4528941;28;20043;-62
2021/10/11 08:08:57;;;;;;;7.80;5.63;;;;;;;;;;4529041;28;20048;-62
2021/10/11 08:11:08;;;;;;;7.45;4.90;;;;;;;;;;4529405;28;20044;-62
2021/10/11 08:13:20;;;;;;;7.07;4.93;;;;;;;;;;4530160;28;20044;-62
2021/10/11 08:15:30;;;;;;;8.02;5.15;;;;;;;;;;4528390;28;20040;-62
2021/10/11 08:17:41;;;;;;;8.67;5.03;;;;;;;;;;4531285;28;20029;-62
2021/10/11 08:19:51;;;;;;;6.70;4.80;;;;;;;;;;4527572;28;20037;-62
2021/10/11 08:22:02;;;;;;;7.87;5.23;;;;;;;;;;4528459;28;20083;-62
2021/10/11 08:24:14;;;;;;;8.37;5.03;;;;;;;;;;4522427;28;20269;-62
2021/10/11 08:26:25;;;;;;;7.38;4.60;;;;;;;;;;4529608;28;20509;-62
2021/10/11 08:28:36;;;;;;;6.57;4.43;;;;;;;;;;4529265;28;20097;-63
2021/10/11 08:30:46;;;;;;;;;;;;;;;;;;4528302;28;20321;-62
2021/10/11 08:32:58;;;;;;;6.72;4.65;;;;;;;;;;4527307;28;20016;-62
2021/10/11 08:35:08;;;;;;;6.18;4.40;;;;;;;;;;4527187;28;20136;-65
2021/10/11 08:37:20;;;;;;;2.33;1.97;;;;;;;;;;4528745;28;20037;-63
2021/10/11 08:39:31;;;;;;;5.85;3.85;;;;;;;;;;4521432;28;20044;-64
2021/10/11 08:41:42;;;;;;;2.73;1.90;;;;;;;;;;4528127;28;20495;-62
2021/10/11 08:43:52;;;;;;;2.33;1.48;;;;;;;;;;4527763;28;20521;-62
2021/10/11 08:46:04;;;;;;;3.30;1.67;;;;;;;;;;4528336;28;20037;-62
2021/10/11 08:48:14;;;;;;;;;;;;;;;;;;4530014;28;20563;-62
2021/10/11 08:50:25;;;;;;;1.70;1.60;;;;;;;;;;4510839;28;19917;-62
2021/10/11 08:52:35;;;;;;;2.30;1.70;;;;;;;;;;4511918;28;20135;-62
2021/10/11 08:54:46;;;;;;;2.63;1.67;;;;;;;;;;4527746;28;22376;-62
2021/10/11 08:56:56;;;;;;;3.83;1.70;;;;;;;;;;4528136;28;20032;-62
2021/10/11 08:59:06;;;;;;;1.67;1.57;;;;;;;;;;4495392;28;20071;-62
2021/10/11 09:01:21;;;;;;;3.97;1.97;;;;;;;;;;4527470;28;20050;-62
2021/10/11 09:03:32;;;;;;;2.70;1.80;;;;;;;;;;4528300;28;20045;-62
2021/10/11 09:05:43;;;;;;;2.43;1.50;;;;;;;;;;4526993;28;20040;-62
2021/10/11 09:07:58;;;;;;;1.87;1.50;;;;;;;;;;4528268;28;20130;-62
2021/10/11 09:10:08;;;;;;;3.20;1.83;;;;;;;;;;4510036;28;20038;-62
2021/10/11 09:12:21;;;;;;;1.93;1.50;;;;;;;;;;4527334;28;20486;-62
2021/10/11 09:14:31;;;;;;;2.53;1.75;;;;;;;;;;4527522;28;21431;-62
2021/10/11 09:16:56;;;;;;;2.23;1.60;;;;;;;;;;4525988;28;20040;-62
2021/10/11 09:19:29;;;;;;;1.58;1.48;;;;;;;;;;4520531;28;21012;-62
2021/10/11 09:21:39;;;;;;;2.38;1.70;;;;;;;;;;4512281;28;20033;-62
2021/10/11 09:23:50;;;;;;;2.00;1.50;;;;;;;;;;4527245;28;20785;-62
2021/10/11 09:26:13;;;;;;;2.23;1.57;;;;;;;;;;4527891;28;20038;-62
2021/10/11 09:28:26;;;;;;;3.60;1.70;;;;;;;;;;4527319;28;20136;-62
2021/10/11 09:30:39;;;;;;;3.17;1.73;;;;;;;;;;4528920;28;20063;-62
2021/10/11 09:32:49;;;;;;;2.15;1.35;;;;;;;;;;4527028;28;20037;-63
2021/10/11 09:35:18;;;;;;;1.87;1.67;;;;;;;;;;4510818;28;20025;-62
2021/10/11 09:37:35;;;;;;;2.42;1.63;;;;;;;;;;4529558;28;20033;-62
2021/10/11 09:39:45;;;;;;;1.67;1.50;;;;;;;;;;4525511;28;20087;-62
2021/10/11 09:41:57;;;;;;;2.83;1.57;;;;;;;;;;4527354;28;20084;-62
2021/10/11 09:44:11;;;;;;;;;;;;;;;;;;4527622;28;20642;-62
2021/10/11 09:46:24;;;;;;;2.22;1.58;;;;;;;;;;4519976;28;19921;-62
2021/10/11 09:48:34;;;;;;;3.75;1.90;;;;;;;;;;4527587;28;20152;-62
2021/10/11 09:50:45;;;;;;;1.93;1.47;;;;;;;;;;4528346;28;24024;-62
2021/10/11 09:52:56;;;;;;;1.20;1.10;;;;;;;;;;4529717;28;20045;-62
2021/10/11 09:55:08;;;;;;;1.73;1.40;;;;;;;;;;4512255;28;27371;-63
2021/10/11 09:57:19;;;;;;;2.92;1.45;;;;;;;;;;4511168;28;20817;-63
2021/10/11 09:59:30;;;;;;;2.92;1.50;;;;;;;;;;4510823;28;20034;-62
2021/10/11 10:01:42;;;;;;;1.77;1.45;;;;;;;;;;4513660;28;20033;-63
2021/10/11 10:03:53;;;;;;;5.72;1.85;;;;;;;;;;4521267;28;20132;-63
2021/10/11 10:06:06;;;;;;;3.22;1.77;;;;;;;;;;4527355;28;20196;-63
2021/10/11 10:08:21;;;;;;;3.83;1.58;;;;;;;;;;4519629;28;20132;-63
2021/10/11 10:10:33;;;;;;;2.20;1.60;;;;;;;;;;4526228;28;20042;-63
2021/10/11 10:12:49;;;;;;;3.25;1.60;;;;;;;;;;4513045;28;20755;-63
2021/10/11 10:15:02;;;;;;;2.38;1.75;;;;;;;;;;4512772;28;20788;-63
2021/10/11 10:17:12;;;;;;;4.03;2.00;;;;;;;;;;4516370;28;20082;-63
2021/10/11 10:19:34;;;;;;;4.47;1.90;;;;;;;;;;4510941;28;20038;-63
2021/10/11 10:21:45;;;;;;;4.50;2.03;;;;;;;;;;4529819;28;20033;-63
2021/10/11 10:23:56;;;;;;;3.80;1.63;;;;;;;;;;4530297;28;20040;-62
2021/10/11 10:26:10;;;;;;;4.78;2.03;;;;;;;;;;4529684;28;20745;-62
2021/10/11 10:28:22;;;;;;;3.97;2.05;;;;;;;;;;4529938;28;20071;-62
2021/10/11 10:30:32;;;;;;;5.25;1.80;;;;;;;;;;4506116;28;20206;-62
2021/10/11 10:33:03;;;;;;;3.60;1.80;;;;;;;;;;4530285;28;20043;-63
2021/10/11 10:35:17;;;;;;;4.90;2.15;;;;;;;;;;4530632;28;20872;-62
2021/10/11 10:37:38;;;;;;;3.85;1.90;;;;;;;;;;4517325;28;20061;-63
2021/10/11 10:39:50;;;;;;;3.53;1.92;;;;;;;;;;4531472;28;20029;-63
2021/10/11 10:42:00;;;;;;;3.80;1.83;;;;;;;;;;4517595;28;20041;-63
2021/10/11 10:44:17;;;;;;;4.17;2.10;;;;;;;;;;4512973;28;20037;-62
2021/10/11 10:46:27;;;;;;;11.18;2.00;;;;;;;;;;4528189;28;20592;-63
2021/10/11 10:48:52;;;;;;;4.77;2.07;;;;;;;;;;4529927;28;20053;-62
2021/10/11 10:51:03;;;;;;;7.18;2.08;;;;;;;;;;4531272;28;20603;-62
2021/10/11 10:53:14;;;;;;;5.30;2.28;;;;;;;;;;4529889;28;20092;-62
2021/10/11 10:55:25;;;;;;;4.67;1.97;;;;;;;;;;4516021;28;20111;-62
2021/10/11 10:57:35;;;;;;;4.30;1.90;;;;;;;;;;4529725;28;20033;-62
2021/10/11 10:59:57;;;;;;;4.73;2.17;;;;;;;;;;4528627;28;20424;-62
2021/10/11 11:02:08;;;;;;;;;;;;;;;;;;4529972;28;20025;-62
2021/10/11 11:04:23;;;;;;;7.33;1.83;;;;;;;;;;4528776;28;19921;-63
2021/10/11 11:06:33;;;;;;;5.28;2.15;;;;;;;;;;4527991;28;20280;-62
2021/10/11 11:08:44;;;;;;;3.93;2.00;;;;;;;;;;4511134;28;20132;-63
2021/10/11 11:10:59;;;;;;;4.20;2.10;;;;;;;;;;4529201;28;20033;-62
2021/10/11 11:13:14;;;;;;;4.63;1.83;;;;;;;;;;4528854;28;21152;-63
2021/10/11 11:15:27;;;;;;;4.07;1.75;;;;;;;;;;4529946;28;20042;-62
2021/10/11 11:17:40;;;;;;;4.35;1.85;;;;;;;;;;4529296;28;20036;-62
2021/10/11 11:19:50;;;;;;;5.00;1.95;;;;;;;;;;4512028;28;20821;-63
2021/10/11 11:22:01;;;;;;;5.97;2.20;;;;;;;;;;4529259;28;20025;-63
2021/10/11 11:24:11;;;;;;;3.37;1.80;;;;;;;;;;4511849;28;20048;-62
2021/10/11 11:26:22;;;;;;;4.17;1.83;;;;;;;;;;4529356;28;20108;-62
2021/10/11 11:28:35;;;;;;;4.30;1.70;;;;;;;;;;4511821;28;20045;-62
2021/10/11 11:30:46;;;;;;;4.15;1.60;;;;;;;;;;4528918;28;20034;-62
2021/10/11 11:33:04;;;;;;;2.47;1.63;;;;;;;;;;4528785;28;20030;-62
2021/10/11 11:35:23;;;;;;;5.55;1.98;;;;;;;;;;4528225;28;20116;-61
2021/10/11 11:37:34;;;;;;;5.50;1.90;;;;;;;;;;4516561;28;20085;-62
2021/10/11 11:39:44;;;;;;;6.50;2.20;;;;;;;;;;4530641;28;20537;-62
2021/10/11 11:41:55;;;;;;;2.50;1.50;;;;;;;;;;4527908;28;20071;-62
2021/10/11 11:44:06;;;;;;;3.25;1.70;;;;;;;;;;4510146;28;20034;-63
2021/10/11 11:46:16;;;;;;;4.30;1.77;;;;;;;;;;4528285;28;20535;-63
2021/10/11 11:48:28;;;;;;;3.43;1.63;;;;;;;;;;4529170;28;20053;-63
2021/10/11 11:50:41;;;;;;;3.05;1.70;;;;;;;;;;4531201;28;20037;-62
2021/10/11 11:52:59;;;;;;;3.95;2.10;;;;;;;;;;4521679;28;20034;-62
2021/10/11 11:55:09;;;;;;;4.35;1.70;;;;;;;;;;4529682;28;21045;-62
2021/10/11 11:57:20;;;;;;;3.83;1.80;;;;;;;;;;4531182;28;20221;-63
2021/10/11 11:59:31;;;;;;;2.60;1.70;;;;;;;;;;4529597;28;20041;-61
2021/10/11 12:01:41;;;;;;;4.47;1.90;;;;;;;;;;4512513;28;20069;-62
2021/10/11 12:03:55;;;;;;;6.03;2.33;;;;;;;;;;4527840;28;20499;-62
2021/10/11 12:06:06;;;;;;;4.60;1.98;;;;;;;;;;4511555;28;20042;-62
2021/10/11 12:08:17;;;;;;;4.77;2.10;;;;;;;;;;4528243;28;20088;-62
2021/10/11 12:10:27;;;;;;;5.70;2.17;;;;;;;;;;4529129;28;21042;-62
2021/10/11 12:12:38;;;;;;;5.13;2.13;;;;;;;;;;4511871;28;20037;-62
2021/10/11 12:14:49;;;;;;;4.73;1.83;;;;;;;;;;4509894;28;21051;-63
2021/10/11 12:17:00;;;;;;;;;;;;;;;;;;4527787;28;20638;-62
2021/10/11 12:19:11;;;;;;;6.87;2.57;;;;;;;;;;4529592;28;20714;-63
2021/10/11 12:21:26;;;;;;;5.57;2.37;;;;;;;;;;4526921;28;20122;-62
2021/10/11 12:23:39;;;;;;;4.95;2.65;;;;;;;;;;4528618;28;20072;-63
2021/10/11 12:25:50;;;;;;;5.43;2.17;;;;;;;;;;4504664;28;20052;-62
2021/10/11 12:28:17;;;;;;;4.78;2.08;;;;;;;;;;4528984;28;20051;-63
2021/10/11 12:30:27;;;;;;;5.20;2.40;;;;;;;;;;4528102;28;20144;-63
2021/10/11 12:32:38;;;;;;;6.90;2.40;;;;;;;;;;4529082;28;20033;-63
2021/10/11 12:34:52;;;;;;;5.17;2.37;;;;;;;;;;4526959;28;20112;-62
2021/10/11 12:37:07;;;;;;;6.30;2.50;;;;;;;;;;4527740;28;20113;-63
2021/10/11 12:39:18;;;;;;;5.35;2.40;;;;;;;;;;4530577;28;20772;-63
2021/10/11 12:41:29;;;;;;;6.50;2.35;;;;;;;;;;4527683;28;20044;-63
2021/10/11 12:43:53;;;;;;;7.03;2.57;;;;;;;;;;4529089;28;20041;-62
2021/10/11 12:46:07;;;;;;;5.53;2.22;;;;;;;;;;4529369;28;20044;-62
2021/10/11 12:48:18;;;;;;;5.47;2.10;;;;;;;;;;4526709;28;20657;-63
2021/10/11 12:50:28;;;;;;;6.03;2.33;;;;;;;;;;4528114;28;22335;-65
2021/10/11 12:52:44;;;;;;;7.27;2.37;;;;;;;;;;4521067;28;20105;-67
2021/10/11 12:55:06;;;;;;;6.47;2.35;;;;;;;;;;4526848;28;20033;-65
2021/10/11 12:57:26;;;;;;;6.63;2.35;;;;;;;;;;4511603;28;20032;-64
2021/10/11 12:59:39;;;;;;;8.10;2.28;;;;;;;;;;4526613;28;20029;-63
2021/10/11 13:01:50;;;;;;;5.55;2.28;;;;;;;;;;4527289;28;20033;-65